createdAt,value
2018-07-12T00:00:50.867Z,51.40
2018-07-12T00:03:17.221Z,51.60
2018-07-12T00:05:43.547Z,51.70
2018-07-12T00:10:36.656Z,52.10
2018-07-12T00:13:02.996Z,52.40
2018-07-12T00:15:29.313Z,52.50
2018-07-12T00:17:55.634Z,52.80
2018-07-12T00:20:21.982Z,53.30
2018-07-12T00:22:48.342Z,53.70
2018-07-12T00:25:14.688Z,53.80
2018-07-12T00:27:41.016Z,53.90
2018-07-12T00:30:07.346Z,53.80
2018-07-12T00:32:33.661Z,53.90
2018-07-12T00:34:59.975Z,53.90
2018-07-12T00:37:26.297Z,54.00
2018-07-12T00:39:52.620Z,54.10
2018-07-12T00:42:20.281Z,54.20
2018-07-12T00:44:46.622Z,54.20
2018-07-12T00:47:12.983Z,54.40
2018-07-12T00:49:39.307Z,54.40
2018-07-12T00:52:05.636Z,54.40
2018-07-12T00:54:31.976Z,54.30
2018-07-12T00:56:58.305Z,54.30
2018-07-12T00:59:24.643Z,54.10
2018-07-12T01:01:50.971Z,54.50
2018-07-12T01:04:17.311Z,54.90
2018-07-12T01:06:43.639Z,55.30
2018-07-12T01:09:09.955Z,55.40
2018-07-12T01:11:36.277Z,56.00
2018-07-12T01:14:02.554Z,56.30
2018-07-12T01:16:28.865Z,56.30
2018-07-12T01:18:55.198Z,56.30
2018-07-12T01:21:21.567Z,56.40
2018-07-12T01:23:47.888Z,56.00
2018-07-12T01:26:14.195Z,56.20
2018-07-12T01:31:07.306Z,56.20
2018-07-12T01:33:33.627Z,56.00
2018-07-12T01:35:59.983Z,55.90
2018-07-12T01:38:26.355Z,55.80
2018-07-12T01:40:52.690Z,55.70
2018-07-12T01:43:19.017Z,53.40
2018-07-12T01:45:45.434Z,55.40
2018-07-12T01:48:12.071Z,55.90
2018-07-12T01:50:38.423Z,55.80
2018-07-12T01:53:04.750Z,55.60
2018-07-12T01:55:31.069Z,55.80
2018-07-12T01:57:57.423Z,56.40
2018-07-12T02:00:23.822Z,56.10
2018-07-12T02:02:50.206Z,57.20
2018-07-12T02:05:16.522Z,57.60
2018-07-12T02:07:42.841Z,57.00
2018-07-12T02:10:09.172Z,56.30
2018-07-12T02:12:35.504Z,57.50
2018-07-12T02:15:01.810Z,57.50
2018-07-12T02:17:28.107Z,57.70
2018-07-12T02:19:54.434Z,57.90
2018-07-12T02:22:20.753Z,57.60
2018-07-12T02:24:47.091Z,57.40
2018-07-12T02:27:13.625Z,57.20
2018-07-12T02:32:06.870Z,57.20
2018-07-12T02:34:33.239Z,57.30
2018-07-12T02:36:59.588Z,57.10
2018-07-12T02:39:25.961Z,57.20
2018-07-12T02:41:52.312Z,56.80
2018-07-12T02:44:18.655Z,56.90
2018-07-12T02:46:45.009Z,56.90
2018-07-12T02:49:11.342Z,56.60
2018-07-12T02:51:37.677Z,56.80
2018-07-12T02:54:03.979Z,56.50
2018-07-12T02:56:30.336Z,56.20
2018-07-12T02:58:56.633Z,56.70
2018-07-12T03:01:22.961Z,56.70
2018-07-12T03:03:49.289Z,56.80
2018-07-12T03:08:42.414Z,56.80
2018-07-12T03:11:08.778Z,57.10
2018-07-12T03:13:35.077Z,57.30
2018-07-12T03:16:01.402Z,57.40
2018-07-12T03:18:27.850Z,57.00
2018-07-12T03:20:54.172Z,57.00
2018-07-12T03:23:20.526Z,56.90
2018-07-12T03:25:46.825Z,57.00
2018-07-12T03:28:13.150Z,57.00
2018-07-12T03:30:39.516Z,57.10
2018-07-12T03:33:05.839Z,58.50
2018-07-12T03:35:32.200Z,57.30
2018-07-12T03:37:58.514Z,57.60
2018-07-12T03:40:24.846Z,57.80
2018-07-12T03:42:51.193Z,57.60
2018-07-12T03:45:17.523Z,57.60
2018-07-12T03:52:37.695Z,57.90
2018-07-12T03:55:04.068Z,57.90
2018-07-12T03:57:30.415Z,58.00
2018-07-12T03:59:56.735Z,58.20
2018-07-12T04:02:23.044Z,58.20
2018-07-12T04:04:49.381Z,58.40
2018-07-12T04:07:15.713Z,58.50
2018-07-12T04:09:42.039Z,58.40
2018-07-12T04:12:08.373Z,58.40
2018-07-12T04:14:34.680Z,60.10
2018-07-12T04:17:01.031Z,59.10
2018-07-12T04:19:27.377Z,59.30
2018-07-12T04:21:53.678Z,59.50
2018-07-12T04:24:20.016Z,59.60
2018-07-12T04:26:46.319Z,59.70
2018-07-12T04:29:12.692Z,60.00
2018-07-12T04:31:39.002Z,60.20
2018-07-12T04:34:05.640Z,60.40
2018-07-12T04:36:32.062Z,60.90
2018-07-12T04:38:58.484Z,61.50
2018-07-12T04:41:24.781Z,61.20
2018-07-12T04:43:51.094Z,60.80
2018-07-12T04:46:17.448Z,60.50
2018-07-12T04:48:43.740Z,59.70
2018-07-12T04:51:10.104Z,60.00
2018-07-12T04:53:36.397Z,60.10
2018-07-12T04:56:02.717Z,57.90
2018-07-12T04:58:29.140Z,59.80
2018-07-12T05:00:55.418Z,59.60
2018-07-12T05:03:21.734Z,59.50
2018-07-12T05:05:48.043Z,59.50
2018-07-12T05:08:14.406Z,59.90
2018-07-12T05:10:40.646Z,59.60
2018-07-12T05:13:06.958Z,59.30
2018-07-12T05:15:33.278Z,59.10
2018-07-12T05:20:26.395Z,58.00
2018-07-12T05:22:52.724Z,57.50
2018-07-12T05:25:19.043Z,57.30
2018-07-12T05:27:45.341Z,57.30
2018-07-12T05:30:11.659Z,57.20
2018-07-12T05:32:37.965Z,57.30
2018-07-12T05:35:04.598Z,56.90
2018-07-12T05:37:32.235Z,56.40
2018-07-12T05:39:59.876Z,56.10
2018-07-12T05:42:27.597Z,56.40
2018-07-12T05:44:55.275Z,56.30
2018-07-12T05:47:22.964Z,56.00
2018-07-12T05:49:50.647Z,55.70
2018-07-12T05:52:18.388Z,55.20
2018-07-12T05:54:46.070Z,54.40
2018-07-12T05:59:41.506Z,54.10
2018-07-12T06:02:17.843Z,53.90
2018-07-12T06:04:45.692Z,53.20
2018-07-12T06:07:13.448Z,53.00
2018-07-12T06:09:41.215Z,52.70
2018-07-12T06:12:08.911Z,52.60
2018-07-12T06:14:36.607Z,52.30
2018-07-12T06:17:04.351Z,52.10
2018-07-12T06:19:32.067Z,51.70
2018-07-12T06:22:00.058Z,51.40
2018-07-12T06:24:27.734Z,51.10
2018-07-12T06:26:55.457Z,51.20
2018-07-12T06:29:23.178Z,50.40
2018-07-12T06:31:50.910Z,51.20
2018-07-12T06:34:18.605Z,49.50
2018-07-12T06:36:46.529Z,49.20
2018-07-12T06:41:42.094Z,48.00
2018-07-12T06:44:09.786Z,47.80
2018-07-12T06:46:38.328Z,47.70
2018-07-12T06:49:06.562Z,48.20
2018-07-12T06:51:34.357Z,48.50
2018-07-12T06:56:29.934Z,48.80
2018-07-12T06:58:57.601Z,48.60
2018-07-12T07:01:25.333Z,48.30
2018-07-12T07:03:53.050Z,48.30
2018-07-12T07:06:20.779Z,48.40
2018-07-12T07:08:48.475Z,48.60
2018-07-12T07:11:16.187Z,48.60
2018-07-12T07:13:43.892Z,48.50
2018-07-12T07:16:11.578Z,48.10
2018-07-12T07:18:40.127Z,48.30
2018-07-12T07:21:07.923Z,49.60
2018-07-12T07:23:35.661Z,49.30
2018-07-12T07:26:03.401Z,47.30
2018-07-12T07:28:31.714Z,46.90
2018-07-12T07:30:59.403Z,47.50
2018-07-12T07:33:27.123Z,46.00
2018-07-12T07:35:54.806Z,45.60
2018-07-12T07:38:22.503Z,46.20
2018-07-12T07:40:50.230Z,45.40
2018-07-12T07:43:17.995Z,45.40
2018-07-12T07:45:45.827Z,45.00
2018-07-12T07:48:13.557Z,44.90
2018-07-12T07:50:41.263Z,43.30
2018-07-12T07:53:09.201Z,42.50
2018-07-12T07:55:36.935Z,42.00
2018-07-12T07:58:04.662Z,42.10
2018-07-12T08:00:32.421Z,42.30
2018-07-12T08:05:27.925Z,42.70
2018-07-12T08:07:55.688Z,42.00
2018-07-12T08:10:23.509Z,42.00
2018-07-12T08:12:51.252Z,42.00
2018-07-12T08:15:18.987Z,41.60
2018-07-12T08:17:46.725Z,42.20
2018-07-12T08:20:14.615Z,42.40
2018-07-12T08:22:42.350Z,42.70
2018-07-12T08:25:10.112Z,42.70
2018-07-12T08:27:53.989Z,41.70
2018-07-12T08:30:21.727Z,41.20
2018-07-12T08:32:50.349Z,41.30
2018-07-12T08:35:18.133Z,41.20
2018-07-12T08:37:46.398Z,41.30
2018-07-12T08:40:14.170Z,40.10
2018-07-12T08:42:42.184Z,39.70
2018-07-12T08:45:09.940Z,39.70
2018-07-12T08:47:37.811Z,39.40
2018-07-12T08:50:05.614Z,39.20
2018-07-12T08:52:33.326Z,38.70
2018-07-12T08:55:01.071Z,37.90
2018-07-12T08:57:28.893Z,37.60
2018-07-12T08:59:56.791Z,36.50
2018-07-12T09:02:24.624Z,36.40
2018-07-12T09:04:52.497Z,35.70
2018-07-12T09:07:20.222Z,35.90
2018-07-12T09:09:47.984Z,35.50
2018-07-12T09:12:15.763Z,34.90
2018-07-12T09:14:43.774Z,33.60
2018-07-12T09:17:11.575Z,33.50
2018-07-12T09:19:39.359Z,33.70
2018-07-12T09:22:07.384Z,32.90
2018-07-12T09:24:35.186Z,32.80
2018-07-12T09:29:30.781Z,32.90
2018-07-12T09:31:58.899Z,31.60
2018-07-12T09:34:26.731Z,30.20
2018-07-12T09:36:54.618Z,30.00
2018-07-12T09:39:22.735Z,30.40
2018-07-12T09:41:50.735Z,29.80
2018-07-12T09:44:18.580Z,29.80
2018-07-12T09:46:46.369Z,29.40
2018-07-12T09:49:14.321Z,29.00
2018-07-12T09:51:42.119Z,29.50
2018-07-12T09:54:09.925Z,29.00
2018-07-12T09:59:16.869Z,29.10
2018-07-12T10:01:50.242Z,29.20
2018-07-12T10:04:18.028Z,27.70
2018-07-12T10:06:55.485Z,27.70
2018-07-12T10:09:28.994Z,28.80
2018-07-12T10:12:02.698Z,27.80
2018-07-12T10:14:36.241Z,27.30
2018-07-12T10:17:09.774Z,27.20
2018-07-12T10:19:37.682Z,27.70
2018-07-12T10:22:08.296Z,27.70
2018-07-12T10:27:03.912Z,27.30
2018-07-12T10:29:31.646Z,27.10
2018-07-12T10:31:59.392Z,26.40
2018-07-12T10:34:27.129Z,26.10
2018-07-12T10:36:54.848Z,25.70
2018-07-12T10:39:22.666Z,25.80
2018-07-12T10:41:50.543Z,25.90
2018-07-12T10:46:47.102Z,25.40
2018-07-12T10:49:14.908Z,25.20
2018-07-12T10:51:42.717Z,24.80
2018-07-12T10:54:10.539Z,24.60
2018-07-12T10:56:38.362Z,24.60
2018-07-12T10:59:06.077Z,24.70
2018-07-12T11:01:33.843Z,24.50
2018-07-12T11:04:02.155Z,24.20
2018-07-12T11:06:29.960Z,23.80
2018-07-12T11:08:57.719Z,23.80
2018-07-12T11:11:25.602Z,23.40
2018-07-12T11:13:53.677Z,23.20
2018-07-12T11:16:21.457Z,23.30
2018-07-12T11:18:49.377Z,23.00
2018-07-12T11:21:17.161Z,23.00
2018-07-12T11:23:44.914Z,22.50
2018-07-12T11:26:13.037Z,22.30
2018-07-12T11:28:41.218Z,22.90
2018-07-12T11:31:09.356Z,23.10
2018-07-12T11:33:39.386Z,23.40
2018-07-12T11:36:07.491Z,23.50
2018-07-12T11:38:37.293Z,23.60
2018-07-12T11:41:05.599Z,24.60
2018-07-12T11:43:33.442Z,24.10
2018-07-12T11:46:02.998Z,23.50
2018-07-12T11:48:31.449Z,22.90
2018-07-12T11:50:59.176Z,22.80
2018-07-12T11:53:27.597Z,22.50
2018-07-12T11:55:56.957Z,22.30
2018-07-12T11:58:25.078Z,22.60
2018-07-12T12:00:54.125Z,22.40
2018-07-12T12:03:21.883Z,22.70
2018-07-12T12:05:49.685Z,22.30
2018-07-12T12:08:17.470Z,22.40
2018-07-12T12:10:45.367Z,22.30
2018-07-12T12:13:13.329Z,22.20
2018-07-12T12:15:41.082Z,23.00
2018-07-12T12:18:08.771Z,22.80
2018-07-12T12:20:36.952Z,22.70
2018-07-12T12:23:04.929Z,22.20
2018-07-12T12:25:33.280Z,22.30
2018-07-12T12:28:02.279Z,21.80
2018-07-12T12:30:30.116Z,21.90
2018-07-12T12:32:57.933Z,22.00
2018-07-12T12:35:25.690Z,21.90
2018-07-12T12:37:54.444Z,21.70
2018-07-12T12:40:23.329Z,21.90
2018-07-12T12:42:51.488Z,21.70
2018-07-12T12:45:19.258Z,21.80
2018-07-12T12:47:48.015Z,21.70
2018-07-12T12:50:15.831Z,21.10
2018-07-12T12:52:43.749Z,21.10
2018-07-12T12:55:12.202Z,21.30
2018-07-12T13:00:07.851Z,21.40
2018-07-12T13:02:35.495Z,21.30
2018-07-12T13:07:31.906Z,20.90
2018-07-12T13:09:59.919Z,20.80
2018-07-12T13:12:28.057Z,20.90
2018-07-12T13:14:56.065Z,21.20
2018-07-12T13:17:23.952Z,21.00
2018-07-12T13:19:51.854Z,21.10
2018-07-12T13:22:19.527Z,21.00
2018-07-12T13:24:47.307Z,21.50
2018-07-12T13:27:14.998Z,21.20
2018-07-12T13:29:42.699Z,21.70
2018-07-12T13:32:10.398Z,21.40
2018-07-12T13:34:38.268Z,21.30
2018-07-12T13:37:06.074Z,20.90
2018-07-12T13:39:33.821Z,20.90
2018-07-12T13:42:01.621Z,20.80
2018-07-12T13:44:29.372Z,20.40
2018-07-12T13:46:57.182Z,21.40
2018-07-12T13:49:24.913Z,21.00
2018-07-12T13:51:53.025Z,20.60
2018-07-12T13:54:20.831Z,20.40
2018-07-12T13:56:49.243Z,19.90
2018-07-12T13:59:17.771Z,20.10
2018-07-12T14:01:45.514Z,20.10
2018-07-12T14:04:13.206Z,19.90
2018-07-12T14:06:40.951Z,20.00
2018-07-12T14:09:12.091Z,20.20
2018-07-12T14:11:39.817Z,20.10
2018-07-12T14:14:08.038Z,20.90
2018-07-12T14:16:35.872Z,20.10
2018-07-12T14:19:03.733Z,20.10
2018-07-12T14:21:31.637Z,19.90
2018-07-12T14:23:59.387Z,19.60
2018-07-12T14:26:27.119Z,19.60
2018-07-12T14:28:54.843Z,19.40
2018-07-12T14:31:22.760Z,19.40
2018-07-12T14:33:50.507Z,19.10
2018-07-12T14:36:18.266Z,19.30
2018-07-12T14:38:45.978Z,19.00
2018-07-12T14:41:13.891Z,19.10
2018-07-12T14:43:41.738Z,19.00
2018-07-12T14:46:09.740Z,19.80
2018-07-12T14:48:37.695Z,19.40
2018-07-12T14:51:05.504Z,19.50
2018-07-12T14:53:33.349Z,19.40
2018-07-12T14:56:01.139Z,19.10
2018-07-12T14:58:28.896Z,19.10
2018-07-12T15:00:56.609Z,19.10
2018-07-12T15:03:24.298Z,19.00
2018-07-12T15:05:52.034Z,18.60
2018-07-12T15:10:47.810Z,19.00
2018-07-12T15:13:15.598Z,19.10
2018-07-12T15:15:43.374Z,19.30
2018-07-12T15:18:11.102Z,19.30
2018-07-12T15:20:39.003Z,19.50
2018-07-12T15:23:06.726Z,19.30
2018-07-12T15:25:34.514Z,19.90
2018-07-12T15:28:02.362Z,19.10
2018-07-12T15:30:30.146Z,18.80
2018-07-12T15:32:58.441Z,19.00
2018-07-12T15:35:26.475Z,18.90
2018-07-12T15:42:50.775Z,19.20
2018-07-12T15:45:18.804Z,19.10
2018-07-12T15:47:46.666Z,19.00
2018-07-12T15:50:19.301Z,18.90
2018-07-12T15:52:47.132Z,18.80
2018-07-12T15:55:14.914Z,19.30
2018-07-12T15:57:42.684Z,18.90
2018-07-12T16:00:10.751Z,18.70
2018-07-12T16:02:45.978Z,20.00
2018-07-12T16:05:13.748Z,19.40
2018-07-12T16:07:41.586Z,19.40
2018-07-12T16:10:09.498Z,19.20
2018-07-12T16:12:37.265Z,19.00
2018-07-12T16:15:05.611Z,18.90
2018-07-12T16:17:33.493Z,19.20
2018-07-12T16:20:01.247Z,19.10
2018-07-12T16:22:29.121Z,19.20
2018-07-12T16:24:57.163Z,19.30
2018-07-12T16:27:24.957Z,19.30
2018-07-12T16:32:20.591Z,19.00
2018-07-12T16:34:48.338Z,18.70
2018-07-12T16:37:16.226Z,19.00
2018-07-12T16:39:43.974Z,20.00
2018-07-12T16:42:12.119Z,19.70
2018-07-12T16:44:39.890Z,19.70
2018-07-12T16:47:08.061Z,19.80
2018-07-12T16:49:36.396Z,20.20
2018-07-12T16:52:04.215Z,20.10
2018-07-12T16:54:32.469Z,19.90
2018-07-12T16:57:00.411Z,20.20
2018-07-12T16:59:29.437Z,20.50
2018-07-12T17:01:57.618Z,20.90
2018-07-12T17:04:25.447Z,20.90
2018-07-12T17:06:53.287Z,20.60
2018-07-12T17:09:21.189Z,20.70
2018-07-12T17:14:16.872Z,20.70
2018-07-12T17:16:45.439Z,20.60
2018-07-12T17:19:13.166Z,20.80
2018-07-12T17:21:40.892Z,20.30
2018-07-12T17:24:08.625Z,20.70
2018-07-12T17:26:36.358Z,21.00
2018-07-12T17:31:31.930Z,21.80
2018-07-12T17:33:59.801Z,21.70
2018-07-12T17:36:27.869Z,21.70
2018-07-12T17:38:55.923Z,21.60
2018-07-12T17:41:23.887Z,22.20
2018-07-12T17:43:51.887Z,23.00
2018-07-12T17:46:19.668Z,22.50
2018-07-12T17:48:49.259Z,22.60
2018-07-12T17:51:16.989Z,22.80
2018-07-12T17:53:44.779Z,23.10
2018-07-12T17:56:12.566Z,23.20
2018-07-12T17:58:40.422Z,23.30
2018-07-12T18:01:08.259Z,23.20
2018-07-12T18:03:36.199Z,23.40
2018-07-12T18:06:05.233Z,23.80
2018-07-12T18:08:33.023Z,24.10
2018-07-12T18:11:00.753Z,24.60
2018-07-12T18:13:28.567Z,24.70
2018-07-12T18:15:56.376Z,24.90
2018-07-12T18:18:24.240Z,25.10
2018-07-12T18:20:53.171Z,25.40
2018-07-12T18:23:21.191Z,25.80
2018-07-12T18:25:49.774Z,26.20
2018-07-12T18:28:17.906Z,26.10
2018-07-12T18:30:45.621Z,26.10
2018-07-12T18:33:13.316Z,26.30
2018-07-12T18:35:41.328Z,26.30
2018-07-12T18:38:09.090Z,27.30
2018-07-12T18:40:37.278Z,28.10
2018-07-12T18:43:05.176Z,27.40
2018-07-12T18:45:32.903Z,27.50
2018-07-12T18:48:00.648Z,27.90
2018-07-12T18:50:28.394Z,28.40
2018-07-12T18:52:56.703Z,28.60
2018-07-12T18:55:24.412Z,28.70
2018-07-12T18:57:52.189Z,29.00
2018-07-12T19:00:19.899Z,29.90
2018-07-12T19:02:47.678Z,29.70
2018-07-12T19:05:15.475Z,30.00
2018-07-12T19:07:43.231Z,30.30
2018-07-12T19:10:10.954Z,30.50
2018-07-12T19:12:38.715Z,30.80
2018-07-12T19:15:06.500Z,31.30
2018-07-12T19:17:34.422Z,31.70
2018-07-12T19:20:02.420Z,32.10
2018-07-12T19:22:30.602Z,32.40
2018-07-12T19:24:59.002Z,32.90
2018-07-12T19:27:26.737Z,33.50
2018-07-12T19:29:54.587Z,33.80
2018-07-12T19:32:22.580Z,34.50
2018-07-12T19:34:50.424Z,36.30
2018-07-12T19:37:18.708Z,35.20
2018-07-12T19:41:16.041Z,35.60
2018-07-12T19:43:43.741Z,36.00
2018-07-12T19:46:11.603Z,37.00
2018-07-12T19:48:39.637Z,37.40
2018-07-12T19:51:07.509Z,37.40
2018-07-12T19:53:35.190Z,39.50
2018-07-12T19:56:02.949Z,38.20
2018-07-12T19:58:39.806Z,38.30
2018-07-12T20:01:14.571Z,38.70
2018-07-12T20:03:48.865Z,39.50
2018-07-12T20:06:17.453Z,39.20
2018-07-12T20:08:47.723Z,39.20
2018-07-12T20:11:15.865Z,39.30
2018-07-12T20:13:44.145Z,40.50
2018-07-12T20:16:12.117Z,39.70
2018-07-12T20:18:39.873Z,39.90
2018-07-12T20:21:07.611Z,40.30
2018-07-12T20:23:35.341Z,40.50
2018-07-12T20:26:03.107Z,40.80
2018-07-12T20:28:30.798Z,40.90
2018-07-12T20:30:58.593Z,41.20
2018-07-12T20:33:26.251Z,41.10
2018-07-12T20:35:54.015Z,41.10
2018-07-12T20:38:21.773Z,41.10
2018-07-12T20:40:49.517Z,41.10
2018-07-12T20:43:19.097Z,41.00
2018-07-12T20:45:47.270Z,41.10
2018-07-12T20:48:15.310Z,41.30
2018-07-12T20:50:43.065Z,41.60
2018-07-12T20:53:10.788Z,42.10
2018-07-12T20:55:40.232Z,42.20
2018-07-12T20:58:07.984Z,42.70
2018-07-12T21:00:35.688Z,42.90
2018-07-12T21:03:03.607Z,42.90
2018-07-12T21:05:31.323Z,42.90
2018-07-12T21:07:59.089Z,43.00
2018-07-12T21:10:26.788Z,43.20
2018-07-12T21:12:54.510Z,43.20
2018-07-12T21:15:22.329Z,43.00
2018-07-12T21:17:50.972Z,43.10
2018-07-12T21:20:19.546Z,43.30
2018-07-12T21:22:47.312Z,43.70
2018-07-12T21:25:15.369Z,44.20
2018-07-12T21:27:43.061Z,44.50
2018-07-12T21:30:12.654Z,44.50
2018-07-12T21:32:40.390Z,44.80
2018-07-12T21:35:08.355Z,44.80
2018-07-12T21:37:36.147Z,44.60
2018-07-12T21:40:03.930Z,44.90
2018-07-12T21:42:31.804Z,45.10
2018-07-12T21:45:00.669Z,45.20
2018-07-12T21:47:28.921Z,45.30
2018-07-12T21:52:25.021Z,46.90
2018-07-12T21:54:53.588Z,47.80
2018-07-12T21:57:21.389Z,47.10
2018-07-12T21:59:49.203Z,47.60
2018-07-12T22:02:17.044Z,47.90
2018-07-12T22:04:44.792Z,48.60
2018-07-12T22:10:53.898Z,49.20
2018-07-12T22:13:22.203Z,50.00
2018-07-12T22:15:50.019Z,50.40
2018-07-12T22:18:17.795Z,50.50
2018-07-12T22:20:45.523Z,50.60
2018-07-12T22:23:13.264Z,51.00
2018-07-12T22:25:41.032Z,51.20
2018-07-12T22:28:08.801Z,51.40
2018-07-12T22:30:36.593Z,52.40
2018-07-12T22:33:04.661Z,52.20
2018-07-12T22:35:32.439Z,52.50
2018-07-12T22:38:01.061Z,52.40
2018-07-12T22:40:29.322Z,52.80
2018-07-12T22:42:57.400Z,52.90
2018-07-12T22:45:25.687Z,53.00
2018-07-12T22:47:53.636Z,53.00
2018-07-12T22:50:21.547Z,53.30
2018-07-12T22:52:49.421Z,53.30
2018-07-12T22:55:17.231Z,53.40
2018-07-12T22:57:44.969Z,53.40
2018-07-12T23:00:12.731Z,53.50
2018-07-12T23:02:40.406Z,53.50
2018-07-12T23:05:08.403Z,53.60
2018-07-12T23:07:36.184Z,53.60
2018-07-12T23:10:04.471Z,53.70
2018-07-12T23:12:32.187Z,53.80
2018-07-12T23:14:59.926Z,53.70
2018-07-12T23:19:55.491Z,54.20
2018-07-12T23:22:23.237Z,54.50
2018-07-12T23:24:50.996Z,54.40
2018-07-12T23:27:18.742Z,54.50
2018-07-12T23:29:46.649Z,54.80
2018-07-12T23:32:14.346Z,54.80
2018-07-12T23:34:42.048Z,54.80
2018-07-12T23:37:09.763Z,54.80
2018-07-12T23:39:37.465Z,54.70
2018-07-12T23:42:05.190Z,54.60
2018-07-12T23:44:32.911Z,55.60
2018-07-12T23:47:00.623Z,55.50
2018-07-12T23:49:28.374Z,55.50
2018-07-12T23:51:56.066Z,55.40
2018-07-12T23:54:23.785Z,55.00
2018-07-12T23:56:51.649Z,55.30
2018-07-12T23:59:19.380Z,55.60
